createdAt,value
2019-03-27T00:00:33.649Z,101012.58
2019-03-27T00:03:39.359Z,101004.68
2019-03-27T00:06:45.077Z,100998.04
2019-03-27T00:09:50.749Z,100994.53
2019-03-27T00:12:56.483Z,100996.52
2019-03-27T00:16:02.206Z,100993.46
2019-03-27T00:19:07.860Z,100991.88
2019-03-27T00:22:13.543Z,100994.09
2019-03-27T00:25:19.208Z,100983.97
2019-03-27T00:28:24.894Z,100985.48
2019-03-27T00:31:30.690Z,100985.43
2019-03-27T00:34:36.400Z,100987.79
2019-03-27T00:37:42.147Z,100991.09
2019-03-27T00:40:47.823Z,100985.89
2019-03-27T00:43:53.493Z,100987.46
2019-03-27T00:46:59.202Z,100989.13
2019-03-27T00:50:05.009Z,100985.94
2019-03-27T00:53:10.716Z,100990.78
2019-03-27T00:56:16.355Z,100993.23
2019-03-27T00:59:22.003Z,100990.72
2019-03-27T01:02:27.968Z,100989.63
2019-03-27T01:05:33.893Z,100990.71
2019-03-27T01:08:40.082Z,100992.94
2019-03-27T01:11:45.760Z,100994.52
2019-03-27T01:14:51.398Z,100993.75
2019-03-27T01:17:57.092Z,101001.80
2019-03-27T01:21:02.763Z,100995.95
2019-03-27T01:24:08.505Z,100992.08
2019-03-27T01:27:14.219Z,100992.53
2019-03-27T01:30:19.886Z,100996.34
2019-03-27T01:33:25.578Z,100983.78
2019-03-27T01:36:31.230Z,100991.02
2019-03-27T01:39:36.928Z,100997.35
2019-03-27T01:42:42.615Z,100999.16
2019-03-27T01:45:53.351Z,100998.69
2019-03-27T01:48:55.662Z,100988.63
2019-03-27T01:52:01.407Z,101001.84
2019-03-27T01:55:07.385Z,100997.48
2019-03-27T01:58:13.031Z,100996.83
2019-03-27T02:01:18.699Z,101002.56
2019-03-27T02:04:24.340Z,100999.06
2019-03-27T02:07:30.048Z,100999.77
2019-03-27T02:10:35.677Z,100999.75
2019-03-27T02:13:41.345Z,101000.25
2019-03-27T02:16:47.058Z,101003.97
2019-03-27T02:19:53.830Z,101011.86
2019-03-27T02:22:59.510Z,101009.56
2019-03-27T02:26:05.217Z,101013.25
2019-03-27T02:29:10.971Z,101009.23
2019-03-27T02:32:20.479Z,101005.63
2019-03-27T02:35:24.012Z,100997.14
2019-03-27T02:38:29.702Z,101001.52
2019-03-27T02:41:35.384Z,101001.98
2019-03-27T02:44:41.058Z,100999.56
2019-03-27T02:47:46.776Z,101007.08
2019-03-27T02:50:52.398Z,101008.88
2019-03-27T02:53:58.173Z,101012.39
2019-03-27T02:57:03.853Z,101019.86
2019-03-27T03:00:10.565Z,101013.50
2019-03-27T03:03:16.308Z,101022.84
2019-03-27T03:06:21.941Z,101023.00
2019-03-27T03:09:27.684Z,101020.48
2019-03-27T03:12:33.394Z,101023.81
2019-03-27T03:15:39.112Z,101020.73
2019-03-27T03:18:44.800Z,101025.48
2019-03-27T03:21:50.537Z,101027.91
2019-03-27T03:24:56.163Z,101034.86
2019-03-27T03:28:01.845Z,101034.66
2019-03-27T03:31:07.584Z,101036.06
2019-03-27T03:34:14.353Z,101035.44
2019-03-27T03:37:20.052Z,101040.00
2019-03-27T03:40:25.756Z,101040.54
2019-03-27T03:43:31.496Z,101036.20
2019-03-27T03:46:37.146Z,101040.78
2019-03-27T03:49:42.838Z,101046.46
2019-03-27T03:52:48.719Z,101052.50
2019-03-27T03:55:54.891Z,101051.08
2019-03-27T03:59:01.148Z,101048.66
2019-03-27T04:02:06.961Z,101045.88
2019-03-27T04:05:15.180Z,101044.93
2019-03-27T04:08:20.811Z,101053.72
2019-03-27T04:11:26.549Z,101058.20
2019-03-27T04:14:32.191Z,101052.62
2019-03-27T04:17:37.944Z,101058.42
2019-03-27T04:20:43.638Z,101055.39
2019-03-27T04:23:49.396Z,101059.73
2019-03-27T04:26:55.105Z,101061.66
2019-03-27T04:30:00.831Z,101059.56
2019-03-27T04:33:06.500Z,101060.09
2019-03-27T04:36:12.185Z,101065.49
2019-03-27T04:39:17.836Z,101066.35
2019-03-27T04:42:23.566Z,101071.91
2019-03-27T04:45:29.266Z,101080.61
2019-03-27T04:48:35.042Z,101088.13
2019-03-27T04:51:40.671Z,101088.99
2019-03-27T04:54:46.339Z,101086.02
2019-03-27T04:57:52.108Z,101093.96
2019-03-27T05:00:57.799Z,101094.52
2019-03-27T05:04:06.050Z,101094.27
2019-03-27T05:07:13.732Z,101099.89
2019-03-27T05:10:20.152Z,101105.94
2019-03-27T05:13:25.860Z,101111.50
2019-03-27T05:16:31.573Z,101108.21
2019-03-27T05:19:37.251Z,101120.52
2019-03-27T05:22:42.937Z,101115.23
2019-03-27T05:25:48.589Z,101121.37
2019-03-27T05:28:54.668Z,101118.20
2019-03-27T05:32:00.314Z,101115.98
2019-03-27T05:35:06.487Z,101115.59
2019-03-27T05:38:12.139Z,101116.84
2019-03-27T05:41:17.855Z,101122.55
2019-03-27T05:44:23.509Z,101122.41
2019-03-27T05:47:29.151Z,101127.31
2019-03-27T05:50:34.896Z,101124.52
2019-03-27T05:53:40.541Z,101122.61
2019-03-27T05:56:46.257Z,101124.81
2019-03-27T05:59:51.908Z,101128.68
2019-03-27T06:02:57.665Z,101133.73
2019-03-27T06:06:03.309Z,101142.81
2019-03-27T06:09:08.993Z,101147.71
2019-03-27T06:12:14.665Z,101151.71
2019-03-27T06:15:20.362Z,101146.20
2019-03-27T06:18:26.016Z,101140.34
2019-03-27T06:21:31.667Z,101138.52
2019-03-27T06:24:37.348Z,101138.47
2019-03-27T06:27:43.052Z,101143.20
2019-03-27T06:30:48.861Z,101146.72
2019-03-27T06:33:54.484Z,101142.27
2019-03-27T06:37:00.180Z,101147.52
2019-03-27T06:40:06.233Z,101147.34
2019-03-27T06:43:11.898Z,101140.80
2019-03-27T06:46:17.578Z,101138.91
2019-03-27T06:49:23.215Z,101135.81
2019-03-27T06:52:28.965Z,101141.81
2019-03-27T06:55:34.708Z,101139.02
2019-03-27T06:58:53.583Z,101142.23
2019-03-27T07:01:48.920Z,101146.83
2019-03-27T07:04:54.617Z,101152.35
2019-03-27T07:08:00.653Z,101164.98
2019-03-27T07:11:06.300Z,101162.83
2019-03-27T07:14:12.067Z,101174.12
2019-03-27T07:17:17.717Z,101163.80
2019-03-27T07:20:23.396Z,101164.30
2019-03-27T07:23:29.067Z,101166.66
2019-03-27T07:26:34.781Z,101169.22
2019-03-27T07:29:40.480Z,101170.18
2019-03-27T07:32:46.243Z,101158.50
2019-03-27T07:35:51.891Z,101165.56
2019-03-27T07:39:10.482Z,101170.97
2019-03-27T07:42:06.140Z,101181.14
2019-03-27T07:45:12.339Z,101176.90
2019-03-27T07:48:18.005Z,101175.83
2019-03-27T07:51:23.752Z,101186.92
2019-03-27T07:54:29.454Z,101185.92
2019-03-27T07:57:35.209Z,101180.53
2019-03-27T08:00:40.814Z,101178.16
2019-03-27T08:03:46.452Z,101190.89
2019-03-27T08:06:52.133Z,101196.35
2019-03-27T08:09:57.835Z,101200.75
2019-03-27T08:13:03.535Z,101201.30
2019-03-27T08:16:09.296Z,101196.97
2019-03-27T08:19:14.946Z,101201.70
2019-03-27T08:22:20.630Z,101208.76
2019-03-27T08:25:26.301Z,101197.67
2019-03-27T08:28:32.167Z,101195.66
2019-03-27T08:31:37.808Z,101203.34
2019-03-27T08:34:43.530Z,101199.69
2019-03-27T08:37:49.252Z,101197.33
2019-03-27T08:40:54.927Z,101204.03
2019-03-27T08:44:00.759Z,101201.38
2019-03-27T08:47:06.576Z,101193.72
2019-03-27T08:50:12.806Z,101198.80
2019-03-27T08:53:18.550Z,101195.20
2019-03-27T08:56:24.174Z,101191.22
2019-03-27T08:59:29.835Z,101195.16
2019-03-27T09:02:35.580Z,101201.16
2019-03-27T09:05:41.303Z,101198.00
2019-03-27T09:08:47.006Z,101200.27
2019-03-27T09:11:52.736Z,101196.16
2019-03-27T09:14:58.471Z,101191.80
2019-03-27T09:18:04.300Z,101190.50
2019-03-27T09:21:10.033Z,101190.23
2019-03-27T09:24:15.770Z,101193.72
2019-03-27T09:27:21.412Z,101195.00
2019-03-27T09:30:28.758Z,101187.48
2019-03-27T09:33:34.396Z,101188.34
2019-03-27T09:36:40.073Z,101193.33
2019-03-27T09:39:45.794Z,101191.91
2019-03-27T09:42:51.583Z,101196.75
2019-03-27T09:45:57.292Z,101194.03
2019-03-27T09:49:04.010Z,101191.27
2019-03-27T09:52:09.774Z,101192.56
2019-03-27T09:55:15.461Z,101201.18
2019-03-27T09:58:21.262Z,101194.61
2019-03-27T10:01:26.998Z,101195.48
2019-03-27T10:04:32.676Z,101198.22
2019-03-27T10:07:38.380Z,101199.13
2019-03-27T10:10:44.082Z,101207.87
2019-03-27T10:13:49.708Z,101201.31
2019-03-27T10:16:55.395Z,101204.41
2019-03-27T10:20:03.818Z,101208.77
2019-03-27T10:23:08.498Z,101205.14
2019-03-27T10:26:14.131Z,101201.67
2019-03-27T10:29:19.878Z,101205.73
2019-03-27T10:32:25.530Z,101198.07
2019-03-27T10:35:31.252Z,101196.70
2019-03-27T10:38:36.866Z,101200.77
2019-03-27T10:41:42.515Z,101202.94
2019-03-27T10:44:48.251Z,101202.95
2019-03-27T10:47:53.907Z,101196.84
2019-03-27T10:50:59.603Z,101199.62
2019-03-27T10:54:05.562Z,101194.02
2019-03-27T10:57:11.209Z,101199.80
2019-03-27T11:00:17.084Z,101202.53
2019-03-27T11:03:23.620Z,101202.84
2019-03-27T11:06:29.327Z,101203.50
2019-03-27T11:09:35.004Z,101206.03
2019-03-27T11:12:40.715Z,101197.03
2019-03-27T11:15:46.391Z,101202.09
2019-03-27T11:18:52.124Z,101203.81
2019-03-27T11:21:57.820Z,101198.56
2019-03-27T11:25:03.512Z,101196.69
2019-03-27T11:28:09.280Z,101196.52
2019-03-27T11:31:15.048Z,101201.34
2019-03-27T11:34:21.907Z,101198.06
2019-03-27T11:37:27.557Z,101201.12
2019-03-27T11:40:33.220Z,101201.06
2019-03-27T11:43:38.909Z,101199.02
2019-03-27T11:46:44.671Z,101197.56
2019-03-27T11:49:50.405Z,101198.35
2019-03-27T11:52:56.089Z,101197.22
2019-03-27T11:56:03.422Z,101195.95
2019-03-27T11:59:09.298Z,101187.00
2019-03-27T12:02:14.992Z,101185.06
2019-03-27T12:05:20.678Z,101187.97
2019-03-27T12:08:26.363Z,101184.41
2019-03-27T12:11:32.069Z,101184.26
2019-03-27T12:14:37.795Z,101183.61
2019-03-27T12:17:44.540Z,101180.01
2019-03-27T12:20:58.784Z,101178.53
2019-03-27T12:23:57.541Z,101178.02
2019-03-27T12:27:03.332Z,101185.14
2019-03-27T12:30:09.652Z,101179.44
2019-03-27T12:33:15.372Z,101176.72
2019-03-27T12:36:21.105Z,101169.57
2019-03-27T12:39:27.349Z,101175.41
2019-03-27T12:42:33.010Z,101170.48
2019-03-27T12:45:38.867Z,101166.16
2019-03-27T12:48:44.689Z,101169.92
2019-03-27T12:51:50.511Z,101164.92
2019-03-27T12:54:56.247Z,101167.53
2019-03-27T12:58:01.957Z,101165.03
2019-03-27T13:01:07.666Z,101163.92
2019-03-27T13:04:13.376Z,101162.33
2019-03-27T13:07:19.199Z,101162.44
2019-03-27T13:10:25.067Z,101164.88
2019-03-27T13:13:30.811Z,101156.20
2019-03-27T13:16:36.810Z,101151.11
2019-03-27T13:19:42.437Z,101152.66
2019-03-27T13:22:48.163Z,101147.08
2019-03-27T13:25:53.900Z,101148.36
2019-03-27T13:28:59.601Z,101145.94
2019-03-27T13:32:05.567Z,101149.51
2019-03-27T13:35:11.419Z,101146.83
2019-03-27T13:38:17.185Z,101151.02
2019-03-27T13:41:22.920Z,101152.69
2019-03-27T13:44:36.766Z,101148.59
2019-03-27T13:47:36.137Z,101147.36
2019-03-27T13:50:41.778Z,101149.67
2019-03-27T13:53:47.495Z,101146.14
2019-03-27T13:56:53.181Z,101140.81
2019-03-27T13:59:58.893Z,101142.10
2019-03-27T14:03:04.693Z,101132.45
2019-03-27T14:06:10.441Z,101130.08
2019-03-27T14:09:16.230Z,101125.62
2019-03-27T14:12:21.886Z,101132.02
2019-03-27T14:15:27.608Z,101128.70
2019-03-27T14:18:33.338Z,101129.19
2019-03-27T14:21:39.307Z,101125.84
2019-03-27T14:24:45.127Z,101129.09
2019-03-27T14:27:50.896Z,101128.58
2019-03-27T14:30:58.569Z,101126.68
2019-03-27T14:34:04.274Z,101122.97
2019-03-27T14:37:09.976Z,101126.11
2019-03-27T14:40:15.678Z,101122.88
2019-03-27T14:43:21.447Z,101125.84
2019-03-27T14:46:27.224Z,101128.73
2019-03-27T14:49:32.894Z,101136.66
2019-03-27T14:52:38.558Z,101141.42
2019-03-27T14:55:44.267Z,101132.34
2019-03-27T14:58:49.962Z,101127.20
2019-03-27T15:01:55.660Z,101132.37
2019-03-27T15:05:01.295Z,101127.23
2019-03-27T15:08:08.405Z,101126.80
2019-03-27T15:11:14.047Z,101130.48
2019-03-27T15:14:20.661Z,101129.20
2019-03-27T15:17:26.276Z,101131.41
2019-03-27T15:20:31.994Z,101127.47
2019-03-27T15:23:37.727Z,101120.42
2019-03-27T15:26:43.480Z,101124.16
2019-03-27T15:29:49.204Z,101126.30
2019-03-27T15:32:54.917Z,101127.35
2019-03-27T15:36:07.187Z,101125.67
2019-03-27T15:39:12.955Z,101124.54
2019-03-27T15:42:18.925Z,101124.61
2019-03-27T15:45:24.661Z,101123.36
2019-03-27T15:48:30.434Z,101119.83
2019-03-27T15:51:36.168Z,101119.08
2019-03-27T15:54:41.856Z,101125.18
2019-03-27T15:57:47.597Z,101120.41
2019-03-27T16:00:53.287Z,101114.22
2019-03-27T16:03:58.975Z,101113.58
2019-03-27T16:07:04.694Z,101113.41
2019-03-27T16:10:10.338Z,101117.98
2019-03-27T16:13:16.094Z,101119.22
2019-03-27T16:16:21.778Z,101119.13
2019-03-27T16:19:27.468Z,101126.70
2019-03-27T16:22:34.203Z,101127.99
2019-03-27T16:25:39.919Z,101128.59
2019-03-27T16:28:45.588Z,101131.98
2019-03-27T16:31:51.413Z,101129.77
2019-03-27T16:34:57.116Z,101136.53
2019-03-27T16:38:02.909Z,101135.52
2019-03-27T16:41:08.608Z,101142.23
2019-03-27T16:44:14.443Z,101134.08
2019-03-27T16:47:20.127Z,101132.06
2019-03-27T16:50:25.855Z,101137.84
2019-03-27T16:53:31.580Z,101140.56
2019-03-27T16:56:37.285Z,101140.95
2019-03-27T16:59:43.050Z,101141.48
2019-03-27T17:02:48.716Z,101144.57
2019-03-27T17:05:54.661Z,101159.30
2019-03-27T17:09:00.532Z,101164.22
2019-03-27T17:12:07.365Z,101158.78
2019-03-27T17:15:13.716Z,101161.89
2019-03-27T17:18:19.425Z,101166.30
2019-03-27T17:21:33.082Z,101171.20
2019-03-27T17:24:39.122Z,101165.50
2019-03-27T17:27:44.847Z,101163.55
2019-03-27T17:30:50.553Z,101168.97
2019-03-27T17:33:56.180Z,101171.38
2019-03-27T17:37:01.868Z,101178.97
2019-03-27T17:40:07.844Z,101179.50
2019-03-27T17:43:13.501Z,101186.27
2019-03-27T17:46:19.263Z,101185.91
2019-03-27T17:49:24.991Z,101186.93
2019-03-27T17:52:30.739Z,101180.19
2019-03-27T17:55:36.441Z,101193.23
2019-03-27T17:58:42.099Z,101195.42
2019-03-27T18:01:47.879Z,101208.62
2019-03-27T18:04:53.536Z,101204.00
2019-03-27T18:07:59.224Z,101208.19
2019-03-27T18:11:08.020Z,101213.23
2019-03-27T18:14:12.386Z,101216.23
2019-03-27T18:17:18.027Z,101215.86
2019-03-27T18:20:23.701Z,101217.51
2019-03-27T18:23:29.372Z,101217.27
2019-03-27T18:26:35.081Z,101222.12
2019-03-27T18:29:40.763Z,101224.64
2019-03-27T18:32:46.441Z,101226.87
2019-03-27T18:35:52.289Z,101227.08
2019-03-27T18:38:57.951Z,101229.48
2019-03-27T18:42:03.662Z,101236.53
2019-03-27T18:45:09.544Z,101241.17
2019-03-27T18:48:15.292Z,101243.32
2019-03-27T18:51:21.011Z,101242.61
2019-03-27T18:54:26.783Z,101237.56
2019-03-27T18:57:32.498Z,101247.54
2019-03-27T19:00:38.236Z,101242.66
2019-03-27T19:03:44.007Z,101248.10
2019-03-27T19:06:49.802Z,101250.14
2019-03-27T19:09:55.450Z,101255.45
2019-03-27T19:13:01.167Z,101259.80
2019-03-27T19:16:07.811Z,101263.92
2019-03-27T19:19:13.503Z,101260.69
2019-03-27T19:22:19.264Z,101262.70
2019-03-27T19:25:24.989Z,101261.48
2019-03-27T19:28:30.742Z,101264.63
2019-03-27T19:31:36.597Z,101270.38
2019-03-27T19:34:43.441Z,101275.34
2019-03-27T19:37:49.195Z,101276.17
2019-03-27T19:40:54.952Z,101271.75
2019-03-27T19:44:00.747Z,101273.92
2019-03-27T19:47:06.535Z,101276.52
2019-03-27T19:50:12.530Z,101278.66
2019-03-27T19:53:18.279Z,101273.55
2019-03-27T19:56:23.971Z,101277.50
2019-03-27T19:59:29.792Z,101277.40
2019-03-27T20:02:35.471Z,101278.84
2019-03-27T20:05:41.158Z,101279.61
2019-03-27T20:08:46.943Z,101280.94
2019-03-27T20:11:52.608Z,101285.90
2019-03-27T20:15:11.034Z,101278.17
2019-03-27T20:18:05.910Z,101285.33
2019-03-27T20:21:11.655Z,101293.12
2019-03-27T20:24:17.428Z,101293.80
2019-03-27T20:27:23.235Z,101301.63
2019-03-27T20:30:28.972Z,101296.80
2019-03-27T20:33:38.009Z,101293.09
2019-03-27T20:36:42.203Z,101299.17
2019-03-27T20:39:47.924Z,101293.24
2019-03-27T20:42:53.578Z,101290.16
2019-03-27T20:45:59.302Z,101296.18
2019-03-27T20:49:06.051Z,101292.47
2019-03-27T20:52:11.749Z,101295.39
2019-03-27T20:55:29.574Z,101302.94
2019-03-27T20:58:24.917Z,101297.19
2019-03-27T21:01:30.737Z,101295.53
2019-03-27T21:04:36.413Z,101296.20
2019-03-27T21:07:42.056Z,101297.01
2019-03-27T21:10:47.760Z,101298.14
2019-03-27T21:13:53.444Z,101301.05
2019-03-27T21:16:59.178Z,101302.02
2019-03-27T21:20:05.060Z,101300.92
2019-03-27T21:23:10.758Z,101305.14
2019-03-27T21:26:23.254Z,101304.44
2019-03-27T21:29:29.319Z,101300.92
2019-03-27T21:32:34.979Z,101294.66
2019-03-27T21:35:40.807Z,101298.17
2019-03-27T21:38:46.566Z,101299.37
2019-03-27T21:41:52.354Z,101299.39
2019-03-27T21:44:58.039Z,101305.71
2019-03-27T21:48:03.782Z,101312.95
2019-03-27T21:51:11.914Z,101309.48
2019-03-27T21:54:19.294Z,101314.36
2019-03-27T21:57:24.946Z,101314.75
2019-03-27T22:00:38.010Z,101323.42
2019-03-27T22:03:43.697Z,101316.42
2019-03-27T22:06:49.501Z,101322.16
2019-03-27T22:09:55.271Z,101316.03
2019-03-27T22:13:00.963Z,101319.25
2019-03-27T22:16:06.588Z,101317.14
2019-03-27T22:19:13.306Z,101320.73
2019-03-27T22:22:19.045Z,101326.89
2019-03-27T22:25:35.312Z,101328.37
2019-03-27T22:28:32.065Z,101327.31
2019-03-27T22:31:37.850Z,101331.66
2019-03-27T22:34:44.473Z,101336.80
2019-03-27T22:37:50.279Z,101340.94
2019-03-27T22:40:56.009Z,101347.98
2019-03-27T22:44:02.801Z,101340.07
2019-03-27T22:47:08.568Z,101342.43
2019-03-27T22:50:14.288Z,101339.03
2019-03-27T22:53:19.973Z,101336.41
2019-03-27T22:56:25.729Z,101334.95
2019-03-27T22:59:31.494Z,101343.42
2019-03-27T23:02:37.135Z,101339.50
2019-03-27T23:05:42.793Z,101347.91
2019-03-27T23:08:48.469Z,101346.05
2019-03-27T23:11:54.133Z,101341.44
2019-03-27T23:14:59.824Z,101353.42
2019-03-27T23:18:05.568Z,101345.83
2019-03-27T23:21:11.301Z,101337.20
2019-03-27T23:24:17.022Z,101342.80
2019-03-27T23:27:22.744Z,101345.48
2019-03-27T23:30:28.641Z,101350.62
2019-03-27T23:33:34.299Z,101350.55
2019-03-27T23:36:40.039Z,101348.69
2019-03-27T23:39:45.741Z,101345.42
2019-03-27T23:42:51.475Z,101350.53
2019-03-27T23:45:57.225Z,101344.75
2019-03-27T23:49:04.089Z,101348.16
2019-03-27T23:52:09.761Z,101344.55
2019-03-27T23:55:15.425Z,101333.09
2019-03-27T23:58:21.079Z,101339.52
